Time;durP1;ratioP1;P1;durP2;ratioP2;P2;SDS_P1;SDS_P2;PMS_P1;PMS_P2;Temp;Humidity;BMP_temperature;BMP_pressure;BME280_temperature;BME280_humidity;BME280_pressure;Samples;Min_cycle;Max_cycle;Signal;HPM_P1;HPM_P2
2022/09/30 00:01:25;;;;;;;0.85;0.75;;;10.70;71.30;;;;;;5037678;28;20028;-72
2022/09/30 00:03:56;;;;;;;2.13;1.00;;;10.80;71.40;;;;;;5067716;28;20059;-80
2022/09/30 00:06:22;;;;;;;2.28;1.15;;;10.70;71.20;;;;;;5069750;28;20419;-81
2022/09/30 00:08:48;;;;;;;1.10;1.00;;;10.70;71.20;;;;;;5071719;28;20501;-81
2022/09/30 00:11:17;;;;;;;1.00;0.90;;;10.60;71.50;;;;;;5054448;28;20062;-81
2022/09/30 00:13:45;;;;;;;0.80;0.70;;;10.60;71.50;;;;;;5069169;28;20033;-81
2022/09/30 00:16:13;;;;;;;1.35;0.90;;;10.60;71.60;;;;;;5071701;28;20976;-81
2022/09/30 00:18:39;;;;;;;1.00;0.82;;;10.60;71.60;;;;;;5053069;28;20024;-73
2022/09/30 00:21:07;;;;;;;0.93;0.70;;;10.60;71.60;;;;;;5035505;28;20032;-80
2022/09/30 00:23:33;;;;;;;1.60;0.93;;;10.50;71.50;;;;;;5070192;28;20035;-81
2022/09/30 00:26:01;;;;;;;1.27;1.08;;;10.50;71.60;;;;;;5071497;28;20108;-81
2022/09/30 00:28:29;;;;;;;1.38;1.10;;;10.50;71.70;;;;;;5071512;28;20065;-81
2022/09/30 00:30:59;;;;;;;1.42;0.90;;;10.50;71.80;;;;;;5063221;28;20029;-81
2022/09/30 00:33:26;;;;;;;1.75;1.30;;;10.50;71.70;;;;;;5069811;28;20370;-81
2022/09/30 00:35:51;;;;;;;1.30;0.93;;;10.40;71.70;;;;;;5052561;28;20025;-79
2022/09/30 00:38:17;;;;;;;0.63;0.63;;;10.50;71.90;;;;;;5070644;28;20021;-79
2022/09/30 00:40:43;;;;;;;2.28;1.30;;;10.40;71.80;;;;;;5071583;28;20025;-79
2022/09/30 00:43:18;;;;;;;0.73;0.73;;;10.40;71.80;;;;;;5052308;28;20392;-80
2022/09/30 00:45:58;;;;;;;1.15;0.88;;;10.40;71.80;;;;;;5069473;28;20052;-81
2022/09/30 00:48:35;;;;;;;1.48;1.30;;;10.40;71.90;;;;;;5019589;28;20282;-79
2022/09/30 00:51:03;;;;;;;1.55;1.10;;;10.40;72.00;;;;;;5028336;28;20108;-81
2022/09/30 00:53:47;;;;;;;1.52;1.40;;;10.30;72.00;;;;;;5026738;28;20018;-73
2022/09/30 00:56:19;;;;;;;1.73;1.25;;;10.30;72.00;;;;;;5023996;28;20040;-73
2022/09/30 00:58:47;;;;;;;1.27;1.08;;;10.30;72.20;;;;;;5029997;28;20503;-81
2022/09/30 01:01:13;;;;;;;1.58;1.02;;;10.20;72.10;;;;;;5028911;28;20167;-81
2022/09/30 01:03:56;;;;;;;1.33;1.23;;;10.20;72.20;;;;;;5030139;28;20033;-81
2022/09/30 01:06:23;;;;;;;1.48;1.35;;;10.30;72.30;;;;;;5029699;28;20107;-81
2022/09/30 01:08:48;;;;;;;1.52;1.17;;;10.20;72.40;;;;;;5030810;28;20095;-81
2022/09/30 01:11:14;;;;;;;2.75;1.45;;;10.20;72.50;;;;;;5030627;28;20148;-81
2022/09/30 01:13:43;;;;;;;3.80;1.90;;;10.20;72.60;;;;;;5030905;28;20022;-80
2022/09/30 01:16:27;;;;;;;1.35;1.25;;;10.20;72.70;;;;;;5028709;28;20101;-81
2022/09/30 01:19:30;;;;;;;1.92;1.67;;;10.10;72.70;;;;;;5029094;28;20079;-73
2022/09/30 01:22:13;;;;;;;2.35;1.70;;;10.10;72.80;;;;;;5025700;28;20032;-72
2022/09/30 01:25:14;;;;;;;2.03;1.50;;;10.10;73.10;;;;;;5029490;28;20033;-72
2022/09/30 01:27:51;;;;;;;2.15;1.65;;;10.10;73.10;;;;;;5021949;28;20075;-72
2022/09/30 01:30:33;;;;;;;1.80;1.50;;;10.10;73.10;;;;;;5027137;28;20034;-72
2022/09/30 01:33:21;;;;;;;1.60;1.08;;;10.00;72.90;;;;;;5027577;28;20013;-72
2022/09/30 01:36:22;;;;;;;1.67;1.20;;;10.00;72.90;;;;;;5023640;28;20079;-72
2022/09/30 01:39:07;;;;;;;3.25;1.58;;;10.00;72.90;;;;;;4972625;28;20117;-72
2022/09/30 01:41:44;;;;;;;1.83;1.45;;;10.00;72.90;;;;;;5035848;28;20038;-73
2022/09/30 01:44:13;;;;;;;1.10;0.88;;;9.90;72.90;;;;;;5025792;28;20071;-72
2022/09/30 01:46:43;;;;;;;1.92;1.40;;;9.90;72.90;;;;;;5034981;28;20063;-73
2022/09/30 01:49:26;;;;;;;1.05;1.02;;;9.90;72.80;;;;;;5045314;28;20051;-72
2022/09/30 01:51:56;;;;;;;2.63;1.08;;;9.90;72.80;;;;;;5028835;28;20029;-73
2022/09/30 01:54:29;;;;;;;1.08;1.02;;;9.90;72.90;;;;;;5042262;28;20353;-80
2022/09/30 01:57:13;;;;;;;2.75;1.48;;;9.90;72.90;;;;;;5050302;28;20544;-72
2022/09/30 01:59:50;;;;;;;1.25;1.15;;;9.80;72.70;;;;;;5049502;28;20387;-72
2022/09/30 02:02:24;;;;;;;1.40;1.23;;;9.80;72.80;;;;;;5048479;28;20132;-72
2022/09/30 02:04:58;;;;;;;2.63;1.45;;;9.80;72.90;;;;;;5046394;28;20755;-73
2022/09/30 02:07:38;;;;;;;1.88;1.50;;;9.80;72.80;;;;;;5047816;28;20025;-72
2022/09/30 02:10:23;;;;;;;1.20;1.10;;;9.80;72.80;;;;;;5047178;28;20384;-72
2022/09/30 02:12:56;;;;;;;1.65;1.30;;;9.70;72.80;;;;;;5043155;28;20028;-80
2022/09/30 02:15:25;;;;;;;2.92;1.55;;;9.70;72.90;;;;;;5049353;28;20024;-80
2022/09/30 02:18:18;;;;;;;2.67;1.83;;;9.70;73.00;;;;;;5046297;28;20028;-80
2022/09/30 02:20:50;;;;;;;1.23;1.15;;;9.70;72.90;;;;;;5031198;28;20037;-81
2022/09/30 02:23:32;;;;;;;2.53;1.95;;;9.60;73.10;;;;;;5050257;28;20024;-80
2022/09/30 02:26:09;;;;;;;3.13;1.75;;;9.60;73.10;;;;;;5040889;28;20100;-72
2022/09/30 02:28:41;;;;;;;1.98;1.58;;;9.60;73.30;;;;;;5041321;28;20090;-73
2022/09/30 02:31:09;;;;;;;1.60;1.27;;;9.60;73.40;;;;;;5041905;28;20032;-73
2022/09/30 02:33:49;;;;;;;2.83;2.13;;;9.60;73.50;;;;;;5049392;28;20052;-72
2022/09/30 02:36:39;;;;;;;3.63;2.42;;;9.60;73.50;;;;;;5047997;28;20032;-79
2022/09/30 02:39:35;;;;;;;2.45;2.10;;;9.60;73.50;;;;;;5046635;28;20013;-79
2022/09/30 02:42:19;;;;;;;3.67;1.75;;;9.60;73.70;;;;;;5049222;28;20435;-80
2022/09/30 02:44:50;;;;;;;2.35;2.03;;;9.60;73.70;;;;;;5046367;28;20087;-79
2022/09/30 02:47:27;;;;;;;2.83;1.90;;;9.50;73.70;;;;;;5046642;28;20072;-72
2022/09/30 02:50:06;;;;;;;1.65;1.50;;;9.50;73.90;;;;;;5041157;28;20044;-80
2022/09/30 02:53:06;;;;;;;2.17;1.63;;;9.50;73.90;;;;;;5043625;28;20358;-72
2022/09/30 02:55:55;;;;;;;3.05;2.15;;;9.50;73.80;;;;;;5037323;28;20036;-72
2022/09/30 02:58:25;;;;;;;2.67;2.00;;;9.50;73.90;;;;;;5047446;28;20045;-80
2022/09/30 03:00:52;;;;;;;2.38;2.08;;;9.40;73.80;;;;;;5046901;28;20032;-72
2022/09/30 03:03:24;;;;;;;2.88;1.48;;;9.40;73.80;;;;;;5046461;28;20536;-80
2022/09/30 03:05:50;;;;;;;2.47;2.13;;;9.50;73.90;;;;;;5048641;28;20028;-72
2022/09/30 03:08:16;;;;;;;2.53;1.63;;;9.40;73.90;;;;;;5047937;28;20286;-72
2022/09/30 03:10:42;;;;;;;4.57;2.58;;;9.40;73.90;;;;;;5046497;28;20039;-80
2022/09/30 03:13:46;;;;;;;4.70;1.73;;;9.40;74.00;;;;;;5030796;28;20025;-80
2022/09/30 03:16:39;;;;;;;1.90;1.65;;;9.40;73.90;;;;;;5042194;28;20496;-80
2022/09/30 03:19:42;;;;;;;1.52;1.42;;;9.40;74.00;;;;;;5039938;28;20021;-80
2022/09/30 03:22:42;;;;;;;3.40;2.10;;;9.40;73.80;;;;;;5044632;28;20299;-80
2022/09/30 03:25:19;;;;;;;1.30;1.10;;;9.30;73.80;;;;;;5049161;28;20036;-72
2022/09/30 03:27:51;;;;;;;1.50;1.40;;;9.30;74.00;;;;;;5046682;28;20658;-72
2022/09/30 03:30:25;;;;;;;1.67;1.50;;;9.30;73.90;;;;;;5048524;28;20025;-72
2022/09/30 03:32:57;;;;;;;2.53;1.80;;;9.30;74.00;;;;;;5046355;28;20033;-71
2022/09/30 03:35:41;;;;;;;2.05;1.83;;;9.30;74.10;;;;;;5047514;28;20503;-71
2022/09/30 03:38:28;;;;;;;2.05;1.30;;;9.30;74.00;;;;;;5048147;28;20048;-78
2022/09/30 03:41:07;;;;;;;2.08;1.70;;;9.30;74.00;;;;;;5048230;28;20056;-79
2022/09/30 03:43:52;;;;;;;1.65;1.55;;;9.20;74.10;;;;;;5040594;28;20083;-79
2022/09/30 03:46:44;;;;;;;3.22;1.42;;;9.20;74.00;;;;;;5030568;28;20554;-78
2022/09/30 03:49:14;;;;;;;3.15;2.08;;;9.20;74.10;;;;;;5044423;28;20478;-79
2022/09/30 03:51:40;;;;;;;5.78;2.63;;;9.10;74.20;;;;;;5046458;28;20032;-79
2022/09/30 03:54:12;;;;;;;2.85;2.17;;;9.10;74.40;;;;;;5047281;28;20036;-79
2022/09/30 03:56:41;;;;;;;2.10;1.90;;;9.10;74.50;;;;;;5045288;28;20099;-72
2022/09/30 03:59:29;;;;;;;3.63;2.33;;;9.10;74.70;;;;;;5046756;28;20055;-79
2022/09/30 04:01:56;;;;;;;2.10;1.90;;;9.20;74.50;;;;;;5045025;28;20396;-79
2022/09/30 04:04:22;;;;;;;4.72;1.90;;;9.10;74.50;;;;;;5037682;28;20095;-79
2022/09/30 04:06:48;;;;;;;2.65;1.90;;;9.10;74.50;;;;;;5041704;28;20489;-79
2022/09/30 04:09:14;;;;;;;2.47;1.55;;;9.10;74.40;;;;;;5038532;28;20029;-79
2022/09/30 04:11:40;;;;;;;2.40;1.70;;;9.10;74.40;;;;;;5036297;28;20029;-72
2022/09/30 04:14:06;;;;;;;2.42;1.38;;;9.00;74.30;;;;;;5034990;28;20120;-72
2022/09/30 04:16:32;;;;;;;1.35;1.23;;;9.00;74.40;;;;;;5024490;28;20500;-79
2022/09/30 04:18:58;;;;;;;3.80;2.53;;;9.00;74.40;;;;;;5038766;28;20350;-79
2022/09/30 04:21:27;;;;;;;3.78;2.55;;;9.00;74.50;;;;;;5045163;28;20087;-79
2022/09/30 04:23:54;;;;;;;2.15;1.77;;;9.00;74.60;;;;;;5050376;28;20495;-72
2022/09/30 04:26:20;;;;;;;2.58;1.88;;;9.00;74.70;;;;;;5032351;28;20387;-72
2022/09/30 04:28:46;;;;;;;3.03;2.10;;;9.00;74.60;;;;;;5046353;28;20091;-78
2022/09/30 04:31:13;;;;;;;2.58;1.63;;;9.00;74.70;;;;;;5050903;28;20033;-72
2022/09/30 04:33:39;;;;;;;2.47;2.28;;;9.00;74.70;;;;;;5050123;28;20025;-73
2022/09/30 04:36:05;;;;;;;3.67;2.33;;;9.00;74.70;;;;;;5029527;28;20061;-79
2022/09/30 04:38:32;;;;;;;3.45;1.83;;;9.00;74.70;;;;;;5043497;28;20108;-79
2022/09/30 04:41:02;;;;;;;1.90;1.50;;;9.00;74.70;;;;;;5050572;28;20464;-72
2022/09/30 04:43:28;;;;;;;2.95;2.22;;;9.00;74.70;;;;;;5049020;28;20043;-79
2022/09/30 04:45:54;;;;;;;3.45;2.40;;;9.00;74.70;;;;;;5044883;28;20485;-78
2022/09/30 04:48:23;;;;;;;3.03;2.40;;;8.90;74.70;;;;;;5034215;28;20036;-72
2022/09/30 04:50:49;;;;;;;1.98;1.80;;;8.90;74.90;;;;;;5045975;28;20093;-79
2022/09/30 04:53:17;;;;;;;1.92;1.83;;;8.90;75.00;;;;;;5044420;28;20040;-79
2022/09/30 04:55:44;;;;;;;4.05;2.45;;;8.90;75.00;;;;;;5057107;28;20021;-72
2022/09/30 04:58:10;;;;;;;3.40;2.17;;;8.80;74.90;;;;;;5058538;28;20074;-72
2022/09/30 05:00:36;;;;;;;2.50;1.75;;;8.80;74.90;;;;;;5010506;28;20040;-79
2022/09/30 05:03:03;;;;;;;3.03;1.60;;;8.80;75.00;;;;;;5070221;28;20490;-72
2022/09/30 05:05:29;;;;;;;4.03;2.90;;;8.80;74.90;;;;;;5067710;28;20103;-79
2022/09/30 05:08:03;;;;;;;4.07;2.20;;;8.80;74.80;;;;;;5071061;28;20033;-72
2022/09/30 05:10:29;;;;;;;2.95;2.15;;;8.80;74.90;;;;;;5048941;28;20048;-79
2022/09/30 05:12:56;;;;;;;2.03;1.80;;;8.80;75.10;;;;;;5053129;28;20020;-79
2022/09/30 05:15:21;;;;;;;2.90;2.05;;;8.80;75.70;;;;;;5035680;28;20036;-79
2022/09/30 05:17:51;;;;;;;3.90;2.40;;;8.80;75.00;;;;;;5070318;28;20329;-73
2022/09/30 05:20:17;;;;;;;2.42;2.10;;;8.70;74.90;;;;;;5017398;28;20539;-79
2022/09/30 05:22:43;;;;;;;4.43;2.78;;;8.70;74.90;;;;;;5070457;28;20052;-72
2022/09/30 05:25:08;;;;;;;2.50;2.05;;;8.70;74.90;;;;;;5034948;28;20039;-72
2022/09/30 05:27:34;;;;;;;2.95;2.00;;;8.70;75.00;;;;;;5041593;28;20105;-79
2022/09/30 05:30:00;;;;;;;2.17;1.70;;;8.70;74.90;;;;;;5029113;28;20090;-72
2022/09/30 05:32:26;;;;;;;2.78;2.20;;;8.70;74.90;;;;;;5049711;28;20381;-72
2022/09/30 05:34:54;;;;;;;2.92;2.40;;;8.70;74.90;;;;;;5029512;28;20052;-72
2022/09/30 05:37:20;;;;;;;3.42;2.60;;;8.70;74.90;;;;;;5018921;28;20075;-72
2022/09/30 05:39:45;;;;;;;4.88;2.70;;;8.60;75.00;;;;;;5035437;28;20025;-72
2022/09/30 05:42:11;;;;;;;3.15;2.13;;;8.60;75.00;;;;;;5048680;28;20128;-80
2022/09/30 05:44:37;;;;;;;3.20;2.33;;;8.60;75.00;;;;;;5068340;28;20037;-80
2022/09/30 05:47:03;;;;;;;3.60;2.35;;;8.50;74.90;;;;;;5062947;28;20076;-79
2022/09/30 05:49:29;;;;;;;3.13;2.67;;;8.60;75.00;;;;;;5070308;28;20096;-80
2022/09/30 05:51:55;;;;;;;3.55;2.10;;;8.60;75.20;;;;;;5069479;28;20032;-79
2022/09/30 05:54:22;;;;;;;4.07;2.42;;;8.60;75.20;;;;;;5032073;28;20471;-79
2022/09/30 05:56:48;;;;;;;4.57;2.88;;;8.60;75.10;;;;;;5068118;28;20031;-73
2022/09/30 05:59:13;;;;;;;4.32;2.80;;;8.60;75.20;;;;;;5070397;28;20036;-73
2022/09/30 06:01:39;;;;;;;3.83;3.05;;;8.60;75.70;;;;;;5068740;28;20040;-73
2022/09/30 06:04:04;;;;;;;2.30;1.80;;;8.60;75.10;;;;;;5067315;28;20040;-73
2022/09/30 06:06:30;;;;;;;3.13;2.28;;;8.60;75.10;;;;;;5067992;28;20028;-79
2022/09/30 06:08:56;;;;;;;3.47;2.30;;;8.60;75.10;;;;;;5068200;28;20107;-79
2022/09/30 06:11:23;;;;;;;2.35;1.80;;;8.70;75.20;;;;;;5050440;28;20553;-72
2022/09/30 06:13:50;;;;;;;2.83;2.03;;;8.70;75.20;;;;;;5032163;28;20484;-79
2022/09/30 06:16:17;;;;;;;4.30;2.67;;;8.70;75.20;;;;;;5046678;28;20112;-72
2022/09/30 06:18:43;;;;;;;7.47;3.08;;;8.70;75.20;;;;;;5032770;28;20033;-79
2022/09/30 06:21:14;;;;;;;5.95;3.45;;;8.70;75.30;;;;;;5069179;28;20020;-80
2022/09/30 06:23:40;;;;;;;5.55;2.78;;;8.70;75.60;;;;;;5069263;28;20054;-79
2022/09/30 06:26:08;;;;;;;3.80;3.10;;;8.80;75.70;;;;;;5067869;28;20086;-80
2022/09/30 06:28:34;;;;;;;4.78;2.42;;;8.80;75.70;;;;;;5062825;28;20055;-79
2022/09/30 06:31:01;;;;;;;4.22;2.80;;;8.90;75.80;;;;;;5050724;28;20440;-79
2022/09/30 06:33:27;;;;;;;4.93;3.20;;;8.90;75.90;;;;;;5068629;28;20036;-79
2022/09/30 06:35:53;;;;;;;4.18;3.08;;;8.90;75.90;;;;;;5054255;28;20012;-79
2022/09/30 06:38:21;;;;;;;5.10;2.97;;;9.00;76.00;;;;;;5045004;28;20028;-69
2022/09/30 06:40:50;;;;;;;4.40;3.03;;;9.00;76.00;;;;;;5046440;28;20021;-68
2022/09/30 06:43:17;;;;;;;3.83;2.97;;;9.10;76.10;;;;;;5063485;28;20032;-69
2022/09/30 06:45:45;;;;;;;5.70;3.33;;;9.10;76.10;;;;;;5067465;28;20444;-69
2022/09/30 06:48:11;;;;;;;3.72;3.00;;;9.20;76.30;;;;;;5067755;28;20041;-70
2022/09/30 06:50:38;;;;;;;5.28;2.90;;;9.20;76.30;;;;;;5068285;28;20036;-70
2022/09/30 06:53:05;;;;;;;5.95;3.22;;;9.30;76.40;;;;;;5066987;28;20138;-80
2022/09/30 06:55:32;;;;;;;3.72;2.88;;;9.30;76.40;;;;;;5057299;28;20497;-79
2022/09/30 06:57:58;;;;;;;4.22;2.72;;;9.40;76.50;;;;;;5049005;28;20028;-70
2022/09/30 07:00:27;;;;;;;4.78;2.95;;;9.40;76.50;;;;;;5066099;28;20058;-71
2022/09/30 07:02:58;;;;;;;3.80;2.72;;;9.50;76.60;;;;;;5024899;28;20060;-71
2022/09/30 07:05:26;;;;;;;5.18;3.00;;;9.50;77.30;;;;;;5044316;28;20856;-70
2022/09/30 07:07:53;;;;;;;5.32;2.85;;;9.60;76.90;;;;;;5061857;28;20060;-70
2022/09/30 07:10:19;;;;;;;8.57;3.80;;;9.60;76.90;;;;;;5060668;28;20103;-69
2022/09/30 07:12:50;;;;;;;4.47;3.10;;;9.70;77.30;;;;;;5067351;28;20052;-70
2022/09/30 07:15:16;;;;;;;4.90;3.30;;;9.70;77.40;;;;;;5063412;28;20398;-68
2022/09/30 07:17:42;;;;;;;4.22;3.55;;;9.80;77.50;;;;;;5048155;28;20036;-68
2022/09/30 07:20:08;;;;;;;6.10;4.35;;;9.90;77.70;;;;;;5048708;28;20124;-68
2022/09/30 07:22:34;;;;;;;3.25;2.95;;;10.00;77.70;;;;;;5030038;28;20547;-67
2022/09/30 07:25:02;;;;;;;5.88;3.20;;;10.10;77.80;;;;;;5049154;28;20488;-69
2022/09/30 07:27:31;;;;;;;6.88;4.45;;;10.20;77.50;;;;;;5061047;28;20243;-79
2022/09/30 07:29:57;;;;;;;8.18;5.07;;;10.30;77.60;;;;;;5064436;28;20103;-80
2022/09/30 07:32:23;;;;;;;6.72;4.82;;;10.40;77.60;;;;;;5065526;28;20043;-80
2022/09/30 07:34:49;;;;;;;6.57;4.65;;;10.50;77.50;;;;;;5040816;28;20074;-72
2022/09/30 07:37:17;;;;;;;5.35;3.92;;;10.60;77.50;;;;;;5014885;28;20024;-71
2022/09/30 07:39:44;;;;;;;10.50;7.03;;;10.70;77.90;;;;;;5065746;28;20048;-70
2022/09/30 07:42:12;;;;;;;9.75;6.80;;;10.70;77.70;;;;;;5061794;28;20721;-69
2022/09/30 07:44:40;;;;;;;11.13;7.20;;;10.80;78.20;;;;;;5065966;28;20566;-77
2022/09/30 07:47:08;;;;;;;9.27;6.82;;;10.80;78.10;;;;;;5063407;28;20171;-77
2022/09/30 07:49:34;;;;;;;8.98;5.90;;;10.90;78.10;;;;;;5042478;28;20055;-77
2022/09/30 07:52:00;;;;;;;8.05;5.85;;;11.00;78.10;;;;;;5065884;28;20040;-78
2022/09/30 07:54:29;;;;;;;9.70;6.55;;;11.10;78.00;;;;;;5069322;28;20098;-77
2022/09/30 07:56:55;;;;;;;8.32;5.60;;;11.20;78.00;;;;;;5051824;28;20021;-77
2022/09/30 07:59:21;;;;;;;9.48;6.53;;;11.20;78.00;;;;;;5071115;28;20364;-78
2022/09/30 08:01:47;;;;;;;8.57;5.53;;;11.30;77.90;;;;;;5069328;28;20165;-78
2022/09/30 08:04:14;;;;;;;9.35;7.15;;;11.40;77.70;;;;;;5068761;28;20067;-77
2022/09/30 08:06:44;;;;;;;11.15;7.10;;;11.50;77.70;;;;;;5069799;28;20044;-77
2022/09/30 08:09:11;;;;;;;8.95;6.22;;;11.60;77.60;;;;;;5070260;28;20844;-78
2022/09/30 08:11:38;;;;;;;10.40;6.68;;;11.60;77.60;;;;;;5042488;28;20044;-77
2022/09/30 08:14:04;;;;;;;12.20;8.50;;;11.70;77.70;;;;;;5053992;28;20364;-78
2022/09/30 08:16:30;;;;;;;15.60;9.93;;;11.70;77.60;;;;;;5065377;28;20090;-78
2022/09/30 08:19:00;;;;;;;13.23;8.25;;;11.80;77.90;;;;;;5046011;28;20430;-78
2022/09/30 08:21:27;;;;;;;11.02;7.70;;;11.80;77.90;;;;;;5035621;28;20021;-77
2022/09/30 08:23:53;;;;;;;10.35;6.90;;;11.90;77.80;;;;;;5068252;28;20020;-77
2022/09/30 08:26:19;;;;;;;13.90;6.45;;;12.00;77.50;;;;;;5042961;28;20063;-77
2022/09/30 08:28:46;;;;;;;9.50;7.63;;;12.10;77.40;;;;;;5062387;28;20311;-78
2022/09/30 08:31:13;;;;;;;14.38;8.30;;;12.20;77.40;;;;;;5050603;28;20145;-77
2022/09/30 08:33:39;;;;;;;10.98;7.13;;;12.20;77.30;;;;;;5070540;28;20040;-77
2022/09/30 08:36:07;;;;;;;11.55;7.55;;;12.30;77.10;;;;;;5070665;28;20021;-70
2022/09/30 08:38:33;;;;;;;10.85;7.30;;;12.40;77.00;;;;;;5071047;28;20432;-77
2022/09/30 08:41:20;;;;;;;13.00;8.75;;;12.60;76.80;;;;;;5052750;28;20395;-77
2022/09/30 08:44:05;;;;;;;12.20;7.57;;;12.60;77.10;;;;;;5053264;28;20035;-70
2022/09/30 08:46:42;;;;;;;11.88;8.02;;;12.70;76.40;;;;;;5064390;28;20064;-69
2022/09/30 08:49:29;;;;;;;12.48;7.82;;;12.90;76.10;;;;;;5070466;28;20044;-70
2022/09/30 08:51:57;;;;;;;9.52;7.30;;;13.00;75.90;;;;;;5057880;28;20194;-69
2022/09/30 08:54:28;;;;;;;13.52;8.95;;;13.10;75.80;;;;;;5053817;28;20025;-69
2022/09/30 08:56:54;;;;;;;10.38;7.53;;;13.20;75.70;;;;;;5048816;28;20162;-69
2022/09/30 08:59:35;;;;;;;13.80;8.55;;;13.40;75.40;;;;;;5053620;28;20425;-69
2022/09/30 09:02:26;;;;;;;11.80;7.45;;;13.50;74.90;;;;;;5070133;28;20024;-69
2022/09/30 09:04:56;;;;;;;11.48;6.25;;;13.70;74.50;;;;;;5065730;28;20490;-69
2022/09/30 09:07:54;;;;;;;13.32;7.60;;;13.90;74.30;;;;;;5052263;28;20166;-78
2022/09/30 09:10:27;;;;;;;16.95;7.60;;;14.00;74.00;;;;;;5004750;28;20441;-78
2022/09/30 09:13:30;;;;;;;8.93;6.80;;;14.20;73.70;;;;;;5066377;28;20021;-77
2022/09/30 09:16:17;;;;;;;8.95;5.35;;;14.40;73.20;;;;;;5058942;28;20490;-78
2022/09/30 09:19:01;;;;;;;9.32;5.93;;;14.60;72.90;;;;;;5066656;28;20029;-78
2022/09/30 09:21:46;;;;;;;8.38;5.80;;;14.80;73.30;;;;;;5069794;28;20391;-70
2022/09/30 09:24:16;;;;;;;8.77;6.47;;;14.90;72.10;;;;;;5058165;28;20016;-77
2022/09/30 09:26:42;;;;;;;11.07;6.75;;;15.00;71.70;;;;;;5070805;28;20078;-78
2022/09/30 09:29:11;;;;;;;9.13;5.65;;;15.10;71.50;;;;;;5069364;28;20056;-78
2022/09/30 09:31:37;;;;;;;6.45;5.22;;;15.30;70.60;;;;;;5067885;28;20465;-78
2022/09/30 09:34:11;;;;;;;7.55;5.13;;;15.40;70.40;;;;;;5051636;28;20052;-78
2022/09/30 09:37:09;;;;;;;10.50;5.70;;;15.60;69.80;;;;;;5048595;28;20029;-78
2022/09/30 09:39:35;;;;;;;9.93;5.75;;;15.70;68.70;;;;;;5065382;28;20033;-78
2022/09/30 09:42:32;;;;;;;7.22;4.97;;;15.80;68.60;;;;;;5066102;28;20553;-78
2022/09/30 09:45:19;;;;;;;9.40;5.53;;;15.80;68.10;;;;;;5045762;28;20502;-78
2022/09/30 09:47:50;;;;;;;6.90;5.43;;;16.00;67.90;;;;;;5064555;28;20041;-78
2022/09/30 09:50:22;;;;;;;5.90;3.88;;;16.10;67.50;;;;;;5040289;28;20402;-77
2022/09/30 09:52:48;;;;;;;7.95;5.13;;;16.20;66.90;;;;;;5052029;28;20070;-76
2022/09/30 09:55:18;;;;;;;7.03;4.95;;;16.30;66.50;;;;;;5070675;28;20460;-67
2022/09/30 09:57:43;;;;;;;8.52;5.35;;;16.40;65.70;;;;;;5048327;28;20025;-67
2022/09/30 10:03:19;;;;;;;6.82;5.57;;;16.60;65.00;;;;;;5067672;28;20044;-79
2022/09/30 10:05:58;;;;;;;8.23;4.30;;;16.60;64.30;;;;;;5066804;28;20499;-79
2022/09/30 10:08:24;;;;;;;5.82;4.45;;;16.80;64.70;;;;;;5061259;28;20029;-78
2022/09/30 10:10:51;;;;;;;5.60;4.28;;;16.90;64.60;;;;;;5059525;28;20095;-78
2022/09/30 10:13:51;;;;;;;5.07;3.75;;;17.10;64.10;;;;;;5064780;28;20154;-79
2022/09/30 10:16:36;;;;;;;6.75;4.40;;;17.30;63.60;;;;;;5064853;28;20033;-79
2022/09/30 10:19:20;;;;;;;4.05;3.60;;;17.50;63.50;;;;;;5051416;28;20518;-79
2022/09/30 10:21:45;;;;;;;4.10;3.05;;;17.50;62.90;;;;;;5069691;28;20111;-79
2022/09/30 10:24:28;;;;;;;4.95;3.05;;;17.60;62.30;;;;;;5019007;28;20123;-70
2022/09/30 10:26:54;;;;;;;3.83;2.60;;;17.60;61.60;;;;;;5069647;28;20037;-69
2022/09/30 10:29:32;;;;;;;4.05;2.85;;;17.70;61.60;;;;;;5069588;28;20040;-70
2022/09/30 10:32:08;;;;;;;5.65;4.60;;;17.80;61.40;;;;;;5046932;28;20113;-69
2022/09/30 10:34:40;;;;;;;19.20;4.18;;;17.90;60.70;;;;;;5068613;28;20074;-70
2022/09/30 10:37:14;;;;;;;3.00;2.70;;;17.90;59.90;;;;;;5064366;28;20785;-79
2022/09/30 10:39:49;;;;;;;3.78;2.92;;;18.00;60.50;;;;;;5069819;28;20019;-79
2022/09/30 10:42:17;;;;;;;6.65;3.80;;;18.10;60.30;;;;;;5068854;28;20030;-79
2022/09/30 10:44:56;;;;;;;4.88;3.97;;;18.10;59.90;;;;;;5063225;28;20025;-79
2022/09/30 10:47:25;;;;;;;5.68;4.25;;;18.20;59.60;;;;;;5045938;28;20050;-79
2022/09/30 10:50:05;;;;;;;5.93;3.78;;;18.30;59.60;;;;;;5045644;28;20043;-79
2022/09/30 10:52:34;;;;;;;5.05;3.90;;;18.30;58.80;;;;;;5041277;28;20036;-79
2022/09/30 10:55:24;;;;;;;4.63;3.83;;;18.20;59.00;;;;;;5059650;28;20443;-79
2022/09/30 10:57:52;;;;;;;4.72;3.58;;;18.20;59.10;;;;;;5047650;28;20032;-79
2022/09/30 11:00:21;;;;;;;5.00;3.58;;;18.40;59.30;;;;;;5063209;28;20520;-70
2022/09/30 11:03:02;;;;;;;6.03;4.25;;;18.60;58.60;;;;;;5066510;28;20008;-70
2022/09/30 11:05:49;;;;;;;3.35;3.05;;;18.70;58.60;;;;;;5050193;28;20555;-79
2022/09/30 11:08:20;;;;;;;4.22;3.13;;;18.80;58.60;;;;;;5064619;28;20016;-79
2022/09/30 11:11:00;;;;;;;7.60;4.30;;;18.80;58.50;;;;;;5064890;28;20028;-70
2022/09/30 11:14:06;;;;;;;5.93;4.05;;;18.70;57.90;;;;;;5066788;28;20044;-67
2022/09/30 11:16:46;;;;;;;3.15;2.83;;;18.60;57.50;;;;;;5026284;28;20033;-68
2022/09/30 11:19:48;;;;;;;3.72;2.83;;;18.60;58.20;;;;;;5066968;28;20028;-68
2022/09/30 11:22:14;;;;;;;3.70;2.83;;;18.90;57.60;;;;;;5061290;28;20033;-68
2022/09/30 11:24:45;;;;;;;3.83;3.00;;;19.20;57.40;;;;;;5050817;28;20036;-68
2022/09/30 11:27:42;;;;;;;4.68;3.22;;;19.30;55.40;;;;;;5063554;28;20032;-69
2022/09/30 11:30:31;;;;;;;4.38;2.70;;;19.30;55.00;;;;;;5064007;28;20032;-68
2022/09/30 11:33:28;;;;;;;2.50;2.30;;;19.30;55.30;;;;;;5059300;28;20456;-68
2022/09/30 11:36:18;;;;;;;5.45;2.60;;;19.30;55.10;;;;;;5065656;28;20100;-69
2022/09/30 11:39:30;;;;;;;7.47;2.50;;;19.40;53.90;;;;;;5064395;28;20082;-77
2022/09/30 11:42:12;;;;;;;4.38;2.70;;;19.60;54.20;;;;;;5063470;28;20067;-76
2022/09/30 11:44:42;;;;;;;2.78;2.53;;;19.80;53.80;;;;;;5054232;28;20075;-77
2022/09/30 11:47:16;;;;;;;4.25;2.95;;;19.90;52.90;;;;;;5041303;28;20416;-76
2022/09/30 11:49:51;;;;;;;3.60;2.33;;;19.90;53.00;;;;;;5067195;28;20024;-77
2022/09/30 11:52:35;;;;;;;3.13;2.20;;;20.00;53.70;;;;;;5050206;28;20431;-77
2022/09/30 11:55:29;;;;;;;3.30;2.70;;;20.20;54.00;;;;;;5045567;28;20383;-77
2022/09/30 11:58:08;;;;;;;5.30;2.90;;;20.40;53.50;;;;;;5041107;28;20037;-77
2022/09/30 12:00:39;;;;;;;3.05;2.65;;;20.50;53.40;;;;;;5061400;28;20028;-69
2022/09/30 12:03:36;;;;;;;3.40;2.70;;;20.70;52.90;;;;;;5066083;28;20039;-70
2022/09/30 12:06:25;;;;;;;5.05;2.22;;;20.70;52.50;;;;;;5067645;28;20048;-70
2022/09/30 12:08:58;;;;;;;4.20;2.90;;;20.80;52.40;;;;;;5045429;28;20040;-77
2022/09/30 12:11:38;;;;;;;4.85;2.10;;;20.70;51.30;;;;;;5054264;28;20539;-77
2022/09/30 12:14:12;;;;;;;3.00;2.25;;;20.50;51.70;;;;;;5055398;28;20027;-77
2022/09/30 12:16:38;;;;;;;4.32;3.40;;;20.60;52.20;;;;;;5067649;28;20024;-76
2022/09/30 12:19:13;;;;;;;4.47;2.95;;;20.70;51.70;;;;;;5049481;28;20039;-80
2022/09/30 12:21:55;;;;;;;5.28;2.83;;;20.70;51.80;;;;;;5067451;28;20047;-68
2022/09/30 12:24:36;;;;;;;4.20;2.63;;;20.50;51.80;;;;;;5067612;28;20082;-77
2022/09/30 12:27:26;;;;;;;2.80;2.25;;;20.20;52.40;;;;;;5061792;28;20024;-76
2022/09/30 12:30:17;;;;;;;3.97;2.40;;;19.80;52.50;;;;;;5064164;28;20112;-78
2022/09/30 12:33:22;;;;;;;3.83;2.55;;;19.70;53.60;;;;;;5038244;28;20040;-77
2022/09/30 12:35:56;;;;;;;3.95;2.60;;;19.60;53.10;;;;;;5067785;28;20024;-70
2022/09/30 12:38:44;;;;;;;3.50;2.00;;;19.40;53.60;;;;;;5068584;28;20025;-70
2022/09/30 12:41:59;;;;;;;3.47;2.42;;;19.60;54.00;;;;;;5040130;28;20040;-70
2022/09/30 12:44:34;;;;;;;2.47;1.90;;;19.90;53.50;;;;;;5038847;28;20037;-77
2022/09/30 12:47:31;;;;;;;3.47;2.53;;;20.10;53.80;;;;;;5041753;28;20381;-77
2022/09/30 12:49:59;;;;;;;4.95;2.65;;;20.10;53.40;;;;;;5040463;28;20107;-72
2022/09/30 12:52:29;;;;;;;2.20;2.00;;;19.70;53.60;;;;;;5069553;28;20032;-70
2022/09/30 12:55:06;;;;;;;3.83;2.20;;;19.60;54.70;;;;;;5051534;28;20048;-70
2022/09/30 12:57:38;;;;;;;1.73;1.55;;;19.80;54.40;;;;;;5052847;28;20094;-70
2022/09/30 13:00:17;;;;;;;2.40;1.60;;;19.90;53.80;;;;;;5071337;28;20361;-70
2022/09/30 13:02:48;;;;;;;2.03;1.60;;;19.90;52.40;;;;;;5053007;28;20039;-77
2022/09/30 13:05:25;;;;;;;1.85;1.13;;;19.80;52.60;;;;;;5071538;28;20062;-77
2022/09/30 13:08:03;;;;;;;1.20;1.10;;;19.80;53.20;;;;;;5069365;28;20059;-70
2022/09/30 13:10:38;;;;;;;1.27;1.08;;;19.80;53.20;;;;;;5071094;28;20075;-70
2022/09/30 13:13:09;;;;;;;1.70;1.15;;;19.70;53.60;;;;;;5071106;28;20103;-70
2022/09/30 13:15:38;;;;;;;1.83;1.25;;;19.60;53.50;;;;;;5071066;28;20024;-70
2022/09/30 13:18:19;;;;;;;0.73;0.73;;;19.70;54.00;;;;;;5050969;28;20432;-70
2022/09/30 13:20:53;;;;;;;1.10;1.00;;;19.80;53.30;;;;;;5056221;28;20673;-70
2022/09/30 13:23:37;;;;;;;0.77;0.77;;;19.70;52.30;;;;;;5070952;28;20017;-71
2022/09/30 13:26:24;;;;;;;0.93;0.60;;;19.60;52.60;;;;;;5057179;28;20079;-78
2022/09/30 13:29:17;;;;;;;0.95;0.88;;;19.70;52.80;;;;;;5063315;28;20455;-78